Etusivu
METAR-TAF:

METAR-TAF

Lentoasemat :

Brenham Municipal Airport

Brenham, Texas, Yhdysvallat

Leveyspiiri: 30-13-08N, Pituuspiiri: 096-22-27W, korkeus merenpinnasta: 94 m

Tämänhetkinen sää

Tämä raportti tehtiin 30 minuuttia sitten, kello 08.35 UTC
Tuuli 4 kn etelästä
Lämpötila 18°C
Kosteus 100%
Ilmanpaine 1013 hPa
Näkyvyys: 2.4 km
Pilvistä 300 ft:n korkeudessa
utua

METAR: K11R 170835Z AUTO 18004KT 1 1/2SM BR OVC003 18/18 A2991 RMK AO2 T01770176

Aika: 03:05 (09:05 UTC)


TAF: puuttuu

Säähavainnot ja -ennusteet yli 4000 lentoasemalta (METAR- ja TAF-raportit).

Käytössä olevat sääasemat on merkitty karttaan keltaisilla ja punaisilla pisteillä.

Aseta hiiri pisteen päälle nähdäksesi sääaseman nimen.

Klikkaa sitten nähdäksesi säähavainnot ja -ennusteet.

Kartan vaihtaminen: klikkaa mustalla rastilla varustettuja vihreitä pisteitä, niin voit zoomata sisään; viivalla varustettua vihreää pistettä, niin voit zoomata ulos tai vihreitä nuolia, niin pääset viereisille kartoille.


METAR-TAF: